TRA64R LEMG-EHRD
Flight info
| Callsign | TRA64R |
|---|---|
| Flight time | N/A |
| Altitude | 36000 |
| Route | BLN DCT MORAL DCT BEXID DCT VTB DCT RBO DCT OSTIX DCT GASMO DCT DGO L176 LUSEM DCT LULUT DCT ADABI DCT BOKNO DCT DEVRO DCT VANAD DCT PIWIZ DCT VADOM DCT BAMES DCT ARSAF DCT EGOZE DCT CMB DCT VEKIN DCT ADUTO N873 FERDI Y18 DENUT |
| Aircraft | A321/M-SDE3FGHIRWY/LB1 |
Departure
| Time | N/A |
|---|---|
| Airport | Málaga-Costa del Sol Airport (LEMG) |
Arrival
| Time | 2026-05-01 14:23 |
|---|---|
| Airport | Rotterdam The Hague Airport (EHRD) |
| Time | Latitude | Longitude | Altitude | Speed | Heading |
|---|---|---|---|---|---|
| 2026-05-01 14:00 | 46.84977 | 0.62613 | 36200 ft | 451 kts | 10° |
| 2026-05-01 14:00 | 47.09459 | 0.69655 | 36214 ft | 447 kts | 1° |
| 2026-05-01 14:01 | 47.34227 | 0.72261 | 36232 ft | 446 kts | 1° |
| 2026-05-01 14:01 | 47.58587 | 0.78383 | 36209 ft | 448 kts | 15° |
| 2026-05-01 14:02 | 47.82239 | 0.90005 | 36211 ft | 448 kts | 17° |
| 2026-05-01 14:02 | 48.05925 | 1.01979 | 36197 ft | 451 kts | 18° |
| 2026-05-01 14:03 | 48.29753 | 1.14103 | 36197 ft | 453 kts | 19° |
| 2026-05-01 14:03 | 48.53627 | 1.26388 | 36203 ft | 454 kts | 19° |
| 2026-05-01 14:04 | 48.77634 | 1.38488 | 36197 ft | 455 kts | 20° |
| 2026-05-01 14:04 | 49.00535 | 1.53774 | 36188 ft | 447 kts | 49° |
| 2026-05-01 14:05 | 49.16958 | 1.81913 | 36206 ft | 447 kts | 52° |
| 2026-05-01 14:05 | 49.33376 | 2.10452 | 36224 ft | 446 kts | 52° |
| 2026-05-01 14:06 | 49.49696 | 2.39101 | 36208 ft | 445 kts | 52° |
| 2026-05-01 14:06 | 49.58632 | 2.52246 | 36184 ft | 451 kts | 33° |
| 2026-05-01 14:06 | 49.69300 | 2.62501 | 36196 ft | 450 kts | 35° |
| 2026-05-01 14:07 | 49.90523 | 2.83232 | 36203 ft | 451 kts | 34° |
| 2026-05-01 14:08 | 50.22335 | 3.14673 | 34188 ft | 475 kts | 32° |
| 2026-05-01 14:08 | 50.34152 | 3.23028 | 31550 ft | 471 kts | 26° |
| 2026-05-01 14:08 | 50.45555 | 3.31370 | 29812 ft | 444 kts | 28° |
| 2026-05-01 14:08 | 50.56378 | 3.39726 | 27954 ft | 420 kts | 26° |
| 2026-05-01 14:09 | 50.67038 | 3.46873 | 26004 ft | 403 kts | 25° |
| 2026-05-01 14:09 | 50.77189 | 3.53883 | 24051 ft | 393 kts | 26° |
| 2026-05-01 14:09 | 50.86975 | 3.60720 | 22369 ft | 375 kts | 26° |
| 2026-05-01 14:09 | 50.96934 | 3.64037 | 20617 ft | 367 kts | 2° |
| 2026-05-01 14:10 | 51.07067 | 3.64719 | 18888 ft | 360 kts | 3° |
| 2026-05-01 14:10 | 51.16407 | 3.65318 | 17280 ft | 352 kts | 2° |
| 2026-05-01 14:10 | 51.18842 | 3.65473 | 16886 ft | 349 kts | 3° |
| 2026-05-01 14:10 | 51.21252 | 3.65739 | 16483 ft | 346 kts | 10° |
| 2026-05-01 14:11 | 51.23575 | 3.66662 | 16089 ft | 342 kts | 22° |
| 2026-05-01 14:11 | 51.27647 | 3.70398 | 15314 ft | 335 kts | 38° |
| 2026-05-01 14:11 | 51.29532 | 3.72576 | 14936 ft | 334 kts | 38° |
| 2026-05-01 14:12 | 51.31417 | 3.74746 | 14546 ft | 333 kts | 38° |
| 2026-05-01 14:12 | 51.33299 | 3.76906 | 14155 ft | 333 kts | 38° |
| 2026-05-01 14:12 | 51.35178 | 3.79061 | 13739 ft | 332 kts | 38° |
| 2026-05-01 14:12 | 51.37049 | 3.81211 | 13343 ft | 330 kts | 38° |
| 2026-05-01 14:13 | 51.38886 | 3.83326 | 12943 ft | 328 kts | 38° |
| 2026-05-01 14:13 | 51.40135 | 3.84765 | 12676 ft | 327 kts | 38° |
| 2026-05-01 14:13 | 51.42570 | 3.87574 | 12164 ft | 324 kts | 38° |
| 2026-05-01 14:13 | 51.44400 | 3.89684 | 11769 ft | 323 kts | 38° |
| 2026-05-01 14:14 | 51.46229 | 3.91799 | 11376 ft | 322 kts | 38° |
| 2026-05-01 14:14 | 51.48036 | 3.93895 | 10974 ft | 321 kts | 38° |
| 2026-05-01 14:14 | 51.49840 | 3.95991 | 10575 ft | 320 kts | 38° |
| 2026-05-01 14:14 | 51.51625 | 3.98062 | 10349 ft | 313 kts | 38° |
| 2026-05-01 14:15 | 51.53368 | 4.00082 | 10188 ft | 306 kts | 38° |
| 2026-05-01 14:15 | 51.55103 | 4.02098 | 10043 ft | 308 kts | 38° |
| 2026-05-01 14:15 | 51.56856 | 4.04142 | 9421 ft | 315 kts | 38° |
| 2026-05-01 14:15 | 51.58610 | 4.06188 | 8968 ft | 315 kts | 38° |
| 2026-05-01 14:16 | 51.60375 | 4.08246 | 8558 ft | 313 kts | 38° |
| 2026-05-01 14:16 | 51.62136 | 4.10300 | 8144 ft | 311 kts | 38° |
| 2026-05-01 14:16 | 51.63877 | 4.12334 | 7762 ft | 309 kts | 38° |
| 2026-05-01 14:16 | 51.65617 | 4.14370 | 7367 ft | 307 kts | 37° |
| 2026-05-01 14:17 | 51.67340 | 4.16387 | 6974 ft | 305 kts | 37° |
| 2026-05-01 14:17 | 51.69047 | 4.18388 | 6601 ft | 303 kts | 37° |
| 2026-05-01 14:17 | 51.70748 | 4.20385 | 6192 ft | 301 kts | 37° |
| 2026-05-01 14:17 | 51.72454 | 4.22333 | 5788 ft | 300 kts | 31° |
| 2026-05-01 14:18 | 51.74388 | 4.23570 | 5386 ft | 300 kts | 12° |
| 2026-05-01 14:18 | 51.76461 | 4.23736 | 4992 ft | 298 kts | 352° |
| 2026-05-01 14:18 | 51.78499 | 4.23199 | 4582 ft | 296 kts | 349° |
| 2026-05-01 14:18 | 51.79841 | 4.22832 | 4311 ft | 295 kts | 350° |
| 2026-05-01 14:19 | 51.82549 | 4.22145 | 3650 ft | 296 kts | 356° |
| 2026-05-01 14:19 | 51.84563 | 4.22390 | 3138 ft | 281 kts | 15° |
| 2026-05-01 14:19 | 51.86317 | 4.23440 | 2865 ft | 258 kts | 30° |
| 2026-05-01 14:19 | 51.87712 | 4.24983 | 2621 ft | 235 kts | 44° |
| 2026-05-01 14:20 | 51.88791 | 4.26864 | 2306 ft | 222 kts | 57° |
| 2026-05-01 14:20 | 51.90405 | 4.30841 | 1756 ft | 199 kts | 60° |
| 2026-05-01 14:20 | 51.91128 | 4.32633 | 1507 ft | 180 kts | 61° |
| 2026-05-01 14:21 | 51.91771 | 4.34234 | 1268 ft | 161 kts | 61° |
| 2026-05-01 14:21 | 51.92355 | 4.35688 | 1055 ft | 150 kts | 61° |
| 2026-05-01 14:21 | 51.92918 | 4.37096 | 869 ft | 147 kts | 62° |
| 2026-05-01 14:22 | 51.94004 | 4.39810 | 498 ft | 141 kts | 62° |
| 2026-05-01 14:22 | 51.94531 | 4.41127 | 313 ft | 136 kts | 58° |
| 2026-05-01 14:22 | 51.95055 | 4.42407 | 148 ft | 136 kts | 60° |
| 2026-05-01 14:22 | 51.95551 | 4.43677 | 7 ft | 132 kts | 58° |
| 2026-05-01 14:23 | 51.95937 | 4.44655 | -1 ft | 62 kts | 58° |
| 2026-05-01 14:23 | 51.96105 | 4.45072 | 2 ft | 30 kts | 58° |
| 2026-05-01 14:23 | 51.96158 | 4.45233 | 2 ft | 15 kts | 82° |
| 2026-05-01 14:23 | 51.96098 | 4.45390 | 1 ft | 19 kts | 149° |
| 2026-05-01 14:24 | 51.95996 | 4.45286 | 1 ft | 20 kts | 236° |
| 2026-05-01 14:24 | 51.95913 | 4.45082 | 3 ft | 23 kts | 237° |
| 2026-05-01 14:24 | 51.95823 | 4.44849 | 2 ft | 26 kts | 238° |
| 2026-05-01 14:24 | 51.95719 | 4.44591 | 1 ft | 29 kts | 237° |
| 2026-05-01 14:25 | 51.95603 | 4.44307 | 2 ft | 32 kts | 237° |
| 2026-05-01 14:25 | 51.95479 | 4.43993 | 1 ft | 35 kts | 237° |
| 2026-05-01 14:25 | 51.95358 | 4.43687 | 1 ft | 20 kts | 237° |
| 2026-05-01 14:25 | 51.95288 | 4.43522 | 1 ft | 14 kts | 218° |
| 2026-05-01 14:26 | 51.95199 | 4.43558 | 1 ft | 14 kts | 147° |
| 2026-05-01 14:26 | 51.95041 | 4.43705 | 1 ft | 9 kts | 191° |
| 2026-05-01 14:26 | 51.95003 | 4.43626 | 1 ft | 9 kts | 237° |
| 2026-05-01 14:27 | 51.94981 | 4.43566 | 1 ft | 3 kts | 248° |
| 2026-05-01 14:27 | 51.94989 | 4.43543 | 1 ft | 3 kts | 307° |
| 2026-05-01 14:27 | 51.95003 | 4.43522 | 2 ft | 3 kts | 321° |
| 2026-05-01 14:28 | 51.95016 | 4.43508 | 1 ft | 0 kts | 324° |